sensor_id;sensor_type;location;lat;lon;timestamp;P1;P2;P0
73241;PMS5003;65659;49.234;-2.094;2024-01-27T00:01:59;24;22;
73241;PMS5003;65659;49.234;-2.094;2024-01-27T00:04:24;21;21;
73241;PMS5003;65659;49.234;-2.094;2024-01-27T00:06:49;25;25;
73241;PMS5003;65659;49.234;-2.094;2024-01-27T00:09:15;19;19;
73241;PMS5003;65659;49.234;-2.094;2024-01-27T00:11:41;27;26;
73241;PMS5003;65659;49.234;-2.094;2024-01-27T00:14:06;23;22;
73241;PMS5003;65659;49.234;-2.094;2024-01-27T00:16:32;25;24;
73241;PMS5003;65659;49.234;-2.094;2024-01-27T00:18:57;26;23;
73241;PMS5003;65659;49.234;-2.094;2024-01-27T00:21:22;32;31;
73241;PMS5003;65659;49.234;-2.094;2024-01-27T00:23:48;42;41;
73241;PMS5003;65659;49.234;-2.094;2024-01-27T00:26:13;42;41;
73241;PMS5003;65659;49.234;-2.094;2024-01-27T00:28:38;41;40;
73241;PMS5003;65659;49.234;-2.094;2024-01-27T00:31:03;31;27;
73241;PMS5003;65659;49.234;-2.094;2024-01-27T00:33:28;33;32;
73241;PMS5003;65659;49.234;-2.094;2024-01-27T00:35:54;28;27;
73241;PMS5003;65659;49.234;-2.094;2024-01-27T00:38:19;26;24;
73241;PMS5003;65659;49.234;-2.094;2024-01-27T00:40:44;20;19;
73241;PMS5003;65659;49.234;-2.094;2024-01-27T00:43:10;16;15;
73241;PMS5003;65659;49.234;-2.094;2024-01-27T00:45:35;11;11;
73241;PMS5003;65659;49.234;-2.094;2024-01-27T00:48:01;14;14;
73241;PMS5003;65659;49.234;-2.094;2024-01-27T00:50:26;8;8;
73241;PMS5003;65659;49.234;-2.094;2024-01-27T00:52:51;10;9;
73241;PMS5003;65659;49.234;-2.094;2024-01-27T00:55:17;14;13;
73241;PMS5003;65659;49.234;-2.094;2024-01-27T00:57:42;9;9;
73241;PMS5003;65659;49.234;-2.094;2024-01-27T01:00:09;9;8;
73241;PMS5003;65659;49.234;-2.094;2024-01-27T01:02:33;8;8;
73241;PMS5003;65659;49.234;-2.094;2024-01-27T01:04:59;10;10;
73241;PMS5003;65659;49.234;-2.094;2024-01-27T01:07:24;7;7;
73241;PMS5003;65659;49.234;-2.094;2024-01-27T01:09:49;4;4;
73241;PMS5003;65659;49.234;-2.094;2024-01-27T01:12:15;5;4;
73241;PMS5003;65659;49.234;-2.094;2024-01-27T01:14:40;6;5;
73241;PMS5003;65659;49.234;-2.094;2024-01-27T01:17:05;9;8;
73241;PMS5003;65659;49.234;-2.094;2024-01-27T01:19:31;6;4;
73241;PMS5003;65659;49.234;-2.094;2024-01-27T01:21:56;7;6;
73241;PMS5003;65659;49.234;-2.094;2024-01-27T01:24:21;4;4;
73241;PMS5003;65659;49.234;-2.094;2024-01-27T01:26:46;8;7;
73241;PMS5003;65659;49.234;-2.094;2024-01-27T01:29:11;7;6;
73241;PMS5003;65659;49.234;-2.094;2024-01-27T01:31:37;5;4;
73241;PMS5003;65659;49.234;-2.094;2024-01-27T01:34:02;5;4;
73241;PMS5003;65659;49.234;-2.094;2024-01-27T01:36:27;5;5;
73241;PMS5003;65659;49.234;-2.094;2024-01-27T01:38:52;3;3;
73241;PMS5003;65659;49.234;-2.094;2024-01-27T01:41:18;5;5;
73241;PMS5003;65659;49.234;-2.094;2024-01-27T01:43:43;7;7;
73241;PMS5003;65659;49.234;-2.094;2024-01-27T01:46:08;5;5;
73241;PMS5003;65659;49.234;-2.094;2024-01-27T01:48:34;5;4;
73241;PMS5003;65659;49.234;-2.094;2024-01-27T01:50:59;4;3;
73241;PMS5003;65659;49.234;-2.094;2024-01-27T01:53:25;4;4;
73241;PMS5003;65659;49.234;-2.094;2024-01-27T01:55:49;5;5;
73241;PMS5003;65659;49.234;-2.094;2024-01-27T01:58:15;4;4;
73241;PMS5003;65659;49.234;-2.094;2024-01-27T02:00:41;6;4;
73241;PMS5003;65659;49.234;-2.094;2024-01-27T02:03:10;5;5;
73241;PMS5003;65659;49.234;-2.094;2024-01-27T02:05:31;5;5;
73241;PMS5003;65659;49.234;-2.094;2024-01-27T02:07:56;6;6;
73241;PMS5003;65659;49.234;-2.094;2024-01-27T02:10:22;4;4;
73241;PMS5003;65659;49.234;-2.094;2024-01-27T02:12:47;3;3;
73241;PMS5003;65659;49.234;-2.094;2024-01-27T02:15:13;9;8;
73241;PMS5003;65659;49.234;-2.094;2024-01-27T02:17:39;10;9;
73241;PMS5003;65659;49.234;-2.094;2024-01-27T02:20:05;5;5;
73241;PMS5003;65659;49.234;-2.094;2024-01-27T02:22:29;8;7;
73241;PMS5003;65659;49.234;-2.094;2024-01-27T02:24:54;10;8;
73241;PMS5003;65659;49.234;-2.094;2024-01-27T02:27:20;6;6;
73241;PMS5003;65659;49.234;-2.094;2024-01-27T02:29:45;7;7;
73241;PMS5003;65659;49.234;-2.094;2024-01-27T02:32:10;7;7;
73241;PMS5003;65659;49.234;-2.094;2024-01-27T02:34:36;6;5;
73241;PMS5003;65659;49.234;-2.094;2024-01-27T02:37:01;7;7;
73241;PMS5003;65659;49.234;-2.094;2024-01-27T02:39:26;5;5;
73241;PMS5003;65659;49.234;-2.094;2024-01-27T02:41:51;9;7;
73241;PMS5003;65659;49.234;-2.094;2024-01-27T02:44:17;8;5;
73241;PMS5003;65659;49.234;-2.094;2024-01-27T02:46:42;7;6;
73241;PMS5003;65659;49.234;-2.094;2024-01-27T02:49:08;6;4;
73241;PMS5003;65659;49.234;-2.094;2024-01-27T02:51:33;6;6;
73241;PMS5003;65659;49.234;-2.094;2024-01-27T02:53:58;6;6;
73241;PMS5003;65659;49.234;-2.094;2024-01-27T02:56:24;4;4;
73241;PMS5003;65659;49.234;-2.094;2024-01-27T02:58:50;7;7;
73241;PMS5003;65659;49.234;-2.094;2024-01-27T03:01:15;7;6;
73241;PMS5003;65659;49.234;-2.094;2024-01-27T03:03:40;10;8;
73241;PMS5003;65659;49.234;-2.094;2024-01-27T03:06:05;6;6;
73241;PMS5003;65659;49.234;-2.094;2024-01-27T03:08:30;6;6;
73241;PMS5003;65659;49.234;-2.094;2024-01-27T03:10:55;5;5;
73241;PMS5003;65659;49.234;-2.094;2024-01-27T03:13:21;8;7;
73241;PMS5003;65659;49.234;-2.094;2024-01-27T03:15:46;7;7;
73241;PMS5003;65659;49.234;-2.094;2024-01-27T03:18:12;8;8;
73241;PMS5003;65659;49.234;-2.094;2024-01-27T03:20:37;11;11;
73241;PMS5003;65659;49.234;-2.094;2024-01-27T03:23:03;8;8;
73241;PMS5003;65659;49.234;-2.094;2024-01-27T03:25:28;6;6;
73241;PMS5003;65659;49.234;-2.094;2024-01-27T03:27:54;7;6;
73241;PMS5003;65659;49.234;-2.094;2024-01-27T03:30:19;6;5;
73241;PMS5003;65659;49.234;-2.094;2024-01-27T03:32:44;7;7;
73241;PMS5003;65659;49.234;-2.094;2024-01-27T03:35:10;7;7;
73241;PMS5003;65659;49.234;-2.094;2024-01-27T03:37:35;9;7;
73241;PMS5003;65659;49.234;-2.094;2024-01-27T03:40:01;7;7;
73241;PMS5003;65659;49.234;-2.094;2024-01-27T03:42:26;9;8;
73241;PMS5003;65659;49.234;-2.094;2024-01-27T03:44:51;8;8;
73241;PMS5003;65659;49.234;-2.094;2024-01-27T03:47:17;7;6;
73241;PMS5003;65659;49.234;-2.094;2024-01-27T03:49:42;7;7;
73241;PMS5003;65659;49.234;-2.094;2024-01-27T03:52:07;7;7;
73241;PMS5003;65659;49.234;-2.094;2024-01-27T03:54:32;8;7;
73241;PMS5003;65659;49.234;-2.094;2024-01-27T03:56:58;6;6;
73241;PMS5003;65659;49.234;-2.094;2024-01-27T03:59:23;9;8;
73241;PMS5003;65659;49.234;-2.094;2024-01-27T04:01:49;8;8;
73241;PMS5003;65659;49.234;-2.094;2024-01-27T04:04:14;8;8;
73241;PMS5003;65659;49.234;-2.094;2024-01-27T04:06:40;7;7;
73241;PMS5003;65659;49.234;-2.094;2024-01-27T04:09:06;11;11;
73241;PMS5003;65659;49.234;-2.094;2024-01-27T04:11:31;12;12;
73241;PMS5003;65659;49.234;-2.094;2024-01-27T04:13:57;7;7;
73241;PMS5003;65659;49.234;-2.094;2024-01-27T04:16:22;7;7;
73241;PMS5003;65659;49.234;-2.094;2024-01-27T04:18:48;7;7;
73241;PMS5003;65659;49.234;-2.094;2024-01-27T04:21:13;11;11;
73241;PMS5003;65659;49.234;-2.094;2024-01-27T04:23:39;8;8;
73241;PMS5003;65659;49.234;-2.094;2024-01-27T04:26:04;10;8;
73241;PMS5003;65659;49.234;-2.094;2024-01-27T04:28:30;11;10;
73241;PMS5003;65659;49.234;-2.094;2024-01-27T04:30:56;12;10;
73241;PMS5003;65659;49.234;-2.094;2024-01-27T04:33:22;9;8;
73241;PMS5003;65659;49.234;-2.094;2024-01-27T04:35:46;9;8;
73241;PMS5003;65659;49.234;-2.094;2024-01-27T04:38:12;9;8;
73241;PMS5003;65659;49.234;-2.094;2024-01-27T04:40:37;8;7;
73241;PMS5003;65659;49.234;-2.094;2024-01-27T04:43:03;12;11;
73241;PMS5003;65659;49.234;-2.094;2024-01-27T04:45:28;12;11;
73241;PMS5003;65659;49.234;-2.094;2024-01-27T04:47:54;13;10;
73241;PMS5003;65659;49.234;-2.094;2024-01-27T04:50:20;12;11;
73241;PMS5003;65659;49.234;-2.094;2024-01-27T04:52:45;11;10;
73241;PMS5003;65659;49.234;-2.094;2024-01-27T04:55:11;11;9;
73241;PMS5003;65659;49.234;-2.094;2024-01-27T04:57:36;13;12;
73241;PMS5003;65659;49.234;-2.094;2024-01-27T05:00:02;11;10;
73241;PMS5003;65659;49.234;-2.094;2024-01-27T05:02:27;14;13;
73241;PMS5003;65659;49.234;-2.094;2024-01-27T05:04:53;10;10;
73241;PMS5003;65659;49.234;-2.094;2024-01-27T05:07:18;10;9;
73241;PMS5003;65659;49.234;-2.094;2024-01-27T05:09:44;9;9;
73241;PMS5003;65659;49.234;-2.094;2024-01-27T05:12:09;8;8;
73241;PMS5003;65659;49.234;-2.094;2024-01-27T05:14:34;9;8;
73241;PMS5003;65659;49.234;-2.094;2024-01-27T05:17:00;9;9;
73241;PMS5003;65659;49.234;-2.094;2024-01-27T05:19:25;12;11;
73241;PMS5003;65659;49.234;-2.094;2024-01-27T05:21:51;16;15;
73241;PMS5003;65659;49.234;-2.094;2024-01-27T05:24:17;9;9;
73241;PMS5003;65659;49.234;-2.094;2024-01-27T05:26:42;13;12;
73241;PMS5003;65659;49.234;-2.094;2024-01-27T05:29:07;12;10;
73241;PMS5003;65659;49.234;-2.094;2024-01-27T05:31:32;10;10;
73241;PMS5003;65659;49.234;-2.094;2024-01-27T05:33:58;9;9;
73241;PMS5003;65659;49.234;-2.094;2024-01-27T05:36:23;12;10;
73241;PMS5003;65659;49.234;-2.094;2024-01-27T05:38:48;11;11;
73241;PMS5003;65659;49.234;-2.094;2024-01-27T05:41:13;9;9;
73241;PMS5003;65659;49.234;-2.094;2024-01-27T05:43:39;9;9;
73241;PMS5003;65659;49.234;-2.094;2024-01-27T05:46:04;12;11;
73241;PMS5003;65659;49.234;-2.094;2024-01-27T05:48:29;10;9;
73241;PMS5003;65659;49.234;-2.094;2024-01-27T05:50:55;11;8;
73241;PMS5003;65659;49.234;-2.094;2024-01-27T05:53:20;7;7;
73241;PMS5003;65659;49.234;-2.094;2024-01-27T05:55:46;11;10;
73241;PMS5003;65659;49.234;-2.094;2024-01-27T05:58:10;10;8;
73241;PMS5003;65659;49.234;-2.094;2024-01-27T06:00:36;15;14;
73241;PMS5003;65659;49.234;-2.094;2024-01-27T06:03:00;9;9;
73241;PMS5003;65659;49.234;-2.094;2024-01-27T06:05:26;9;9;
73241;PMS5003;65659;49.234;-2.094;2024-01-27T06:07:51;8;7;
73241;PMS5003;65659;49.234;-2.094;2024-01-27T06:10:17;9;9;
73241;PMS5003;65659;49.234;-2.094;2024-01-27T06:12:42;8;8;
73241;PMS5003;65659;49.234;-2.094;2024-01-27T06:15:08;7;7;
73241;PMS5003;65659;49.234;-2.094;2024-01-27T06:17:33;8;8;
73241;PMS5003;65659;49.234;-2.094;2024-01-27T06:19:58;9;9;
73241;PMS5003;65659;49.234;-2.094;2024-01-27T06:22:24;8;7;
73241;PMS5003;65659;49.234;-2.094;2024-01-27T06:24:49;9;8;
73241;PMS5003;65659;49.234;-2.094;2024-01-27T06:27:14;10;9;
73241;PMS5003;65659;49.234;-2.094;2024-01-27T06:29:40;10;8;
73241;PMS5003;65659;49.234;-2.094;2024-01-27T06:32:06;9;7;
73241;PMS5003;65659;49.234;-2.094;2024-01-27T06:34:31;10;8;
73241;PMS5003;65659;49.234;-2.094;2024-01-27T06:36:57;8;7;
73241;PMS5003;65659;49.234;-2.094;2024-01-27T06:39:22;6;6;
73241;PMS5003;65659;49.234;-2.094;2024-01-27T06:41:47;9;8;
73241;PMS5003;65659;49.234;-2.094;2024-01-27T06:44:12;10;9;
73241;PMS5003;65659;49.234;-2.094;2024-01-27T06:46:37;7;7;
73241;PMS5003;65659;49.234;-2.094;2024-01-27T06:49:03;10;9;
73241;PMS5003;65659;49.234;-2.094;2024-01-27T06:51:29;8;8;
73241;PMS5003;65659;49.234;-2.094;2024-01-27T06:53:54;7;7;
73241;PMS5003;65659;49.234;-2.094;2024-01-27T06:56:19;8;8;
73241;PMS5003;65659;49.234;-2.094;2024-01-27T06:58:45;8;7;
73241;PMS5003;65659;49.234;-2.094;2024-01-27T07:01:10;8;7;
73241;PMS5003;65659;49.234;-2.094;2024-01-27T07:03:36;11;9;
73241;PMS5003;65659;49.234;-2.094;2024-01-27T07:06:01;6;6;
73241;PMS5003;65659;49.234;-2.094;2024-01-27T07:08:26;10;9;
73241;PMS5003;65659;49.234;-2.094;2024-01-27T07:10:52;9;9;
73241;PMS5003;65659;49.234;-2.094;2024-01-27T07:13:17;11;10;
73241;PMS5003;65659;49.234;-2.094;2024-01-27T07:15:43;5;5;
73241;PMS5003;65659;49.234;-2.094;2024-01-27T07:18:08;6;6;
73241;PMS5003;65659;49.234;-2.094;2024-01-27T07:20:33;7;7;
73241;PMS5003;65659;49.234;-2.094;2024-01-27T07:22:58;7;6;
73241;PMS5003;65659;49.234;-2.094;2024-01-27T07:25:24;9;7;
73241;PMS5003;65659;49.234;-2.094;2024-01-27T07:27:49;8;7;
73241;PMS5003;65659;49.234;-2.094;2024-01-27T07:30:14;5;5;
73241;PMS5003;65659;49.234;-2.094;2024-01-27T07:32:40;9;8;
73241;PMS5003;65659;49.234;-2.094;2024-01-27T07:35:05;8;8;
73241;PMS5003;65659;49.234;-2.094;2024-01-27T07:37:30;8;8;
73241;PMS5003;65659;49.234;-2.094;2024-01-27T07:39:55;7;7;
73241;PMS5003;65659;49.234;-2.094;2024-01-27T07:42:21;7;6;
73241;PMS5003;65659;49.234;-2.094;2024-01-27T07:44:46;5;5;
73241;PMS5003;65659;49.234;-2.094;2024-01-27T07:47:11;5;5;
73241;PMS5003;65659;49.234;-2.094;2024-01-27T07:49:36;5;5;
73241;PMS5003;65659;49.234;-2.094;2024-01-27T07:52:02;3;3;
73241;PMS5003;65659;49.234;-2.094;2024-01-27T07:54:29;5;3;
73241;PMS5003;65659;49.234;-2.094;2024-01-27T07:56:52;6;5;
73241;PMS5003;65659;49.234;-2.094;2024-01-27T07:59:18;4;3;
73241;PMS5003;65659;49.234;-2.094;2024-01-27T08:01:43;2;2;
73241;PMS5003;65659;49.234;-2.094;2024-01-27T08:04:09;6;6;
73241;PMS5003;65659;49.234;-2.094;2024-01-27T08:06:34;5;4;
73241;PMS5003;65659;49.234;-2.094;2024-01-27T08:09:15;2;2;
73241;PMS5003;65659;49.234;-2.094;2024-01-27T08:11:25;4;4;
73241;PMS5003;65659;49.234;-2.094;2024-01-27T08:13:50;4;4;
73241;PMS5003;65659;49.234;-2.094;2024-01-27T08:16:15;7;7;
73241;PMS5003;65659;49.234;-2.094;2024-01-27T08:18:41;9;8;
73241;PMS5003;65659;49.234;-2.094;2024-01-27T08:21:06;8;7;
73241;PMS5003;65659;49.234;-2.094;2024-01-27T08:23:31;11;11;
73241;PMS5003;65659;49.234;-2.094;2024-01-27T08:25:57;13;12;
73241;PMS5003;65659;49.234;-2.094;2024-01-27T08:28:23;11;9;
73241;PMS5003;65659;49.234;-2.094;2024-01-27T08:30:48;10;10;
73241;PMS5003;65659;49.234;-2.094;2024-01-27T08:33:13;9;8;
73241;PMS5003;65659;49.234;-2.094;2024-01-27T08:35:39;8;8;
73241;PMS5003;65659;49.234;-2.094;2024-01-27T08:38:04;10;10;
73241;PMS5003;65659;49.234;-2.094;2024-01-27T08:40:29;6;5;
73241;PMS5003;65659;49.234;-2.094;2024-01-27T08:42:54;7;6;
73241;PMS5003;65659;49.234;-2.094;2024-01-27T08:45:20;8;8;
73241;PMS5003;65659;49.234;-2.094;2024-01-27T08:47:45;5;5;
73241;PMS5003;65659;49.234;-2.094;2024-01-27T08:50:10;5;5;
73241;PMS5003;65659;49.234;-2.094;2024-01-27T08:52:35;6;5;
73241;PMS5003;65659;49.234;-2.094;2024-01-27T08:55:00;8;6;
73241;PMS5003;65659;49.234;-2.094;2024-01-27T08:57:26;8;7;
73241;PMS5003;65659;49.234;-2.094;2024-01-27T08:59:51;9;8;
73241;PMS5003;65659;49.234;-2.094;2024-01-27T09:02:16;9;8;
73241;PMS5003;65659;49.234;-2.094;2024-01-27T09:04:42;6;6;
73241;PMS5003;65659;49.234;-2.094;2024-01-27T09:07:07;8;7;
73241;PMS5003;65659;49.234;-2.094;2024-01-27T09:09:32;8;7;
73241;PMS5003;65659;49.234;-2.094;2024-01-27T09:11:57;5;5;
73241;PMS5003;65659;49.234;-2.094;2024-01-27T09:14:23;5;4;
73241;PMS5003;65659;49.234;-2.094;2024-01-27T09:16:48;5;4;
73241;PMS5003;65659;49.234;-2.094;2024-01-27T09:19:13;4;4;
73241;PMS5003;65659;49.234;-2.094;2024-01-27T09:21:39;3;3;
73241;PMS5003;65659;49.234;-2.094;2024-01-27T09:24:04;3;3;
73241;PMS5003;65659;49.234;-2.094;2024-01-27T09:26:29;6;5;
73241;PMS5003;65659;49.234;-2.094;2024-01-27T09:28:55;4;4;
73241;PMS5003;65659;49.234;-2.094;2024-01-27T09:31:20;2;2;
73241;PMS5003;65659;49.234;-2.094;2024-01-27T09:33:46;6;6;
73241;PMS5003;65659;49.234;-2.094;2024-01-27T09:36:11;1;1;
73241;PMS5003;65659;49.234;-2.094;2024-01-27T09:38:36;3;2;
73241;PMS5003;65659;49.234;-2.094;2024-01-27T09:41:01;3;3;
73241;PMS5003;65659;49.234;-2.094;2024-01-27T09:43:26;2;2;
73241;PMS5003;65659;49.234;-2.094;2024-01-27T09:45:51;3;3;
73241;PMS5003;65659;49.234;-2.094;2024-01-27T09:48:16;1;1;
73241;PMS5003;65659;49.234;-2.094;2024-01-27T09:50:41;3;3;
73241;PMS5003;65659;49.234;-2.094;2024-01-27T09:53:06;9;8;
73241;PMS5003;65659;49.234;-2.094;2024-01-27T09:55:32;9;7;
73241;PMS5003;65659;49.234;-2.094;2024-01-27T09:57:57;4;4;
73241;PMS5003;65659;49.234;-2.094;2024-01-27T10:00:23;10;9;
73241;PMS5003;65659;49.234;-2.094;2024-01-27T10:02:48;15;14;
73241;PMS5003;65659;49.234;-2.094;2024-01-27T10:05:14;14;12;
73241;PMS5003;65659;49.234;-2.094;2024-01-27T10:07:39;14;13;
73241;PMS5003;65659;49.234;-2.094;2024-01-27T10:10:05;8;8;
73241;PMS5003;65659;49.234;-2.094;2024-01-27T10:12:29;4;4;
73241;PMS5003;65659;49.234;-2.094;2024-01-27T10:14:55;6;5;
73241;PMS5003;65659;49.234;-2.094;2024-01-27T10:17:20;6;6;
73241;PMS5003;65659;49.234;-2.094;2024-01-27T10:19:45;4;4;
73241;PMS5003;65659;49.234;-2.094;2024-01-27T10:22:10;5;5;
73241;PMS5003;65659;49.234;-2.094;2024-01-27T10:24:35;6;4;
73241;PMS5003;65659;49.234;-2.094;2024-01-27T10:27:01;7;7;
73241;PMS5003;65659;49.234;-2.094;2024-01-27T10:29:27;6;5;
73241;PMS5003;65659;49.234;-2.094;2024-01-27T10:31:50;7;6;
73241;PMS5003;65659;49.234;-2.094;2024-01-27T10:34:19;6;6;
73241;PMS5003;65659;49.234;-2.094;2024-01-27T10:36:41;5;3;
73241;PMS5003;65659;49.234;-2.094;2024-01-27T10:41:31;3;3;
73241;PMS5003;65659;49.234;-2.094;2024-01-27T10:43:56;5;5;
73241;PMS5003;65659;49.234;-2.094;2024-01-27T10:46:22;7;6;
73241;PMS5003;65659;49.234;-2.094;2024-01-27T10:48:49;4;4;
73241;PMS5003;65659;49.234;-2.094;2024-01-27T10:51:12;4;4;
73241;PMS5003;65659;49.234;-2.094;2024-01-27T10:53:43;7;6;
73241;PMS5003;65659;49.234;-2.094;2024-01-27T10:56:03;4;3;
73241;PMS5003;65659;49.234;-2.094;2024-01-27T10:58:28;4;4;
73241;PMS5003;65659;49.234;-2.094;2024-01-27T11:00:53;6;6;
73241;PMS5003;65659;49.234;-2.094;2024-01-27T11:03:18;4;4;
73241;PMS5003;65659;49.234;-2.094;2024-01-27T11:05:44;4;4;
73241;PMS5003;65659;49.234;-2.094;2024-01-27T11:08:09;2;2;
73241;PMS5003;65659;49.234;-2.094;2024-01-27T11:10:34;5;5;
73241;PMS5003;65659;49.234;-2.094;2024-01-27T11:13:00;3;3;
73241;PMS5003;65659;49.234;-2.094;2024-01-27T11:15:25;6;5;
73241;PMS5003;65659;49.234;-2.094;2024-01-27T11:17:50;6;5;
73241;PMS5003;65659;49.234;-2.094;2024-01-27T11:20:15;4;4;
73241;PMS5003;65659;49.234;-2.094;2024-01-27T11:22:40;5;5;
73241;PMS5003;65659;49.234;-2.094;2024-01-27T11:25:07;4;3;
73241;PMS5003;65659;49.234;-2.094;2024-01-27T11:27:31;4;4;
73241;PMS5003;65659;49.234;-2.094;2024-01-27T11:29:56;5;5;
73241;PMS5003;65659;49.234;-2.094;2024-01-27T11:32:21;3;3;
73241;PMS5003;65659;49.234;-2.094;2024-01-27T11:34:47;7;7;
73241;PMS5003;65659;49.234;-2.094;2024-01-27T11:37:12;7;5;
73241;PMS5003;65659;49.234;-2.094;2024-01-27T11:39:37;4;4;
73241;PMS5003;65659;49.234;-2.094;2024-01-27T11:42:06;4;4;
73241;PMS5003;65659;49.234;-2.094;2024-01-27T11:44:28;7;6;
73241;PMS5003;65659;49.234;-2.094;2024-01-27T11:46:53;5;5;
73241;PMS5003;65659;49.234;-2.094;2024-01-27T11:49:19;5;5;
73241;PMS5003;65659;49.234;-2.094;2024-01-27T11:51:44;5;5;
73241;PMS5003;65659;49.234;-2.094;2024-01-27T11:54:09;4;4;
73241;PMS5003;65659;49.234;-2.094;2024-01-27T11:56:34;4;3;
73241;PMS5003;65659;49.234;-2.094;2024-01-27T11:59:00;5;2;
73241;PMS5003;65659;49.234;-2.094;2024-01-27T12:01:26;4;4;
73241;PMS5003;65659;49.234;-2.094;2024-01-27T12:03:51;3;3;
73241;PMS5003;65659;49.234;-2.094;2024-01-27T12:06:17;5;5;
73241;PMS5003;65659;49.234;-2.094;2024-01-27T12:08:42;7;5;
73241;PMS5003;65659;49.234;-2.094;2024-01-27T12:11:08;3;3;
73241;PMS5003;65659;49.234;-2.094;2024-01-27T12:13:33;8;8;
73241;PMS5003;65659;49.234;-2.094;2024-01-27T12:15:59;3;3;
73241;PMS5003;65659;49.234;-2.094;2024-01-27T12:18:25;4;4;
73241;PMS5003;65659;49.234;-2.094;2024-01-27T12:20:54;7;5;
73241;PMS5003;65659;49.234;-2.094;2024-01-27T12:23:16;5;5;
73241;PMS5003;65659;49.234;-2.094;2024-01-27T12:25:42;3;2;
73241;PMS5003;65659;49.234;-2.094;2024-01-27T12:28:06;3;2;
73241;PMS5003;65659;49.234;-2.094;2024-01-27T12:30:32;3;3;
73241;PMS5003;65659;49.234;-2.094;2024-01-27T12:32:57;3;2;
73241;PMS5003;65659;49.234;-2.094;2024-01-27T12:35:23;9;9;
73241;PMS5003;65659;49.234;-2.094;2024-01-27T12:37:49;4;4;
73241;PMS5003;65659;49.234;-2.094;2024-01-27T12:40:17;4;4;
73241;PMS5003;65659;49.234;-2.094;2024-01-27T12:42:40;5;4;
73241;PMS5003;65659;49.234;-2.094;2024-01-27T12:45:06;1;1;
73241;PMS5003;65659;49.234;-2.094;2024-01-27T12:47:31;6;4;
73241;PMS5003;65659;49.234;-2.094;2024-01-27T12:49:57;4;3;
73241;PMS5003;65659;49.234;-2.094;2024-01-27T12:52:23;5;4;
73241;PMS5003;65659;49.234;-2.094;2024-01-27T12:54:48;2;2;
73241;PMS5003;65659;49.234;-2.094;2024-01-27T12:57:14;7;6;
73241;PMS5003;65659;49.234;-2.094;2024-01-27T12:59:39;4;4;
73241;PMS5003;65659;49.234;-2.094;2024-01-27T13:02:05;10;8;
73241;PMS5003;65659;49.234;-2.094;2024-01-27T13:04:30;4;4;
73241;PMS5003;65659;49.234;-2.094;2024-01-27T13:06:56;6;6;
73241;PMS5003;65659;49.234;-2.094;2024-01-27T13:09:22;4;4;
73241;PMS5003;65659;49.234;-2.094;2024-01-27T13:11:47;5;4;
73241;PMS5003;65659;49.234;-2.094;2024-01-27T13:14:13;4;3;
73241;PMS5003;65659;49.234;-2.094;2024-01-27T13:16:38;5;5;
73241;PMS5003;65659;49.234;-2.094;2024-01-27T13:19:04;4;2;
73241;PMS5003;65659;49.234;-2.094;2024-01-27T13:21:29;5;5;
73241;PMS5003;65659;49.234;-2.094;2024-01-27T13:23:55;3;2;
73241;PMS5003;65659;49.234;-2.094;2024-01-27T13:26:20;4;4;
73241;PMS5003;65659;49.234;-2.094;2024-01-27T13:28:46;9;9;
73241;PMS5003;65659;49.234;-2.094;2024-01-27T13:31:11;5;5;
73241;PMS5003;65659;49.234;-2.094;2024-01-27T13:33:36;5;5;
73241;PMS5003;65659;49.234;-2.094;2024-01-27T13:36:02;4;2;
73241;PMS5003;65659;49.234;-2.094;2024-01-27T13:38:28;4;3;
73241;PMS5003;65659;49.234;-2.094;2024-01-27T13:40:53;6;5;
73241;PMS5003;65659;49.234;-2.094;2024-01-27T13:43:19;7;4;
73241;PMS5003;65659;49.234;-2.094;2024-01-27T13:45:44;32;32;
73241;PMS5003;65659;49.234;-2.094;2024-01-27T13:48:09;8;8;
73241;PMS5003;65659;49.234;-2.094;2024-01-27T13:50:35;4;2;
73241;PMS5003;65659;49.234;-2.094;2024-01-27T13:53:00;7;6;
73241;PMS5003;65659;49.234;-2.094;2024-01-27T13:55:26;5;4;
73241;PMS5003;65659;49.234;-2.094;2024-01-27T13:57:51;5;4;
73241;PMS5003;65659;49.234;-2.094;2024-01-27T14:00:17;5;4;
73241;PMS5003;65659;49.234;-2.094;2024-01-27T14:02:42;4;4;
73241;PMS5003;65659;49.234;-2.094;2024-01-27T14:05:08;6;6;
73241;PMS5003;65659;49.234;-2.094;2024-01-27T14:07:33;8;6;
73241;PMS5003;65659;49.234;-2.094;2024-01-27T14:09:59;5;3;
73241;PMS5003;65659;49.234;-2.094;2024-01-27T14:12:24;3;3;
73241;PMS5003;65659;49.234;-2.094;2024-01-27T14:14:50;6;4;
73241;PMS5003;65659;49.234;-2.094;2024-01-27T14:17:15;4;4;
73241;PMS5003;65659;49.234;-2.094;2024-01-27T14:19:41;4;4;
73241;PMS5003;65659;49.234;-2.094;2024-01-27T14:22:06;5;5;
73241;PMS5003;65659;49.234;-2.094;2024-01-27T14:24:31;6;6;
73241;PMS5003;65659;49.234;-2.094;2024-01-27T14:26:57;7;5;
73241;PMS5003;65659;49.234;-2.094;2024-01-27T14:29:23;5;4;
73241;PMS5003;65659;49.234;-2.094;2024-01-27T14:31:49;7;7;
73241;PMS5003;65659;49.234;-2.094;2024-01-27T14:34:14;4;4;
73241;PMS5003;65659;49.234;-2.094;2024-01-27T14:36:40;6;5;
73241;PMS5003;65659;49.234;-2.094;2024-01-27T14:39:06;5;4;
73241;PMS5003;65659;49.234;-2.094;2024-01-27T14:41:31;5;4;
73241;PMS5003;65659;49.234;-2.094;2024-01-27T14:43:57;4;4;
73241;PMS5003;65659;49.234;-2.094;2024-01-27T14:46:22;5;4;
73241;PMS5003;65659;49.234;-2.094;2024-01-27T14:48:47;5;5;
73241;PMS5003;65659;49.234;-2.094;2024-01-27T14:51:13;4;4;
73241;PMS5003;65659;49.234;-2.094;2024-01-27T14:53:39;7;6;
73241;PMS5003;65659;49.234;-2.094;2024-01-27T14:56:04;4;4;
73241;PMS5003;65659;49.234;-2.094;2024-01-27T14:58:29;11;10;
73241;PMS5003;65659;49.234;-2.094;2024-01-27T15:00:55;5;5;
73241;PMS5003;65659;49.234;-2.094;2024-01-27T15:03:20;3;3;
73241;PMS5003;65659;49.234;-2.094;2024-01-27T15:05:46;4;4;
73241;PMS5003;65659;49.234;-2.094;2024-01-27T15:08:11;7;5;
73241;PMS5003;65659;49.234;-2.094;2024-01-27T15:10:37;5;4;
73241;PMS5003;65659;49.234;-2.094;2024-01-27T15:13:02;8;6;
73241;PMS5003;65659;49.234;-2.094;2024-01-27T15:15:28;3;3;
73241;PMS5003;65659;49.234;-2.094;2024-01-27T15:17:54;6;6;
73241;PMS5003;65659;49.234;-2.094;2024-01-27T15:20:19;5;5;
73241;PMS5003;65659;49.234;-2.094;2024-01-27T15:22:44;5;5;
73241;PMS5003;65659;49.234;-2.094;2024-01-27T15:25:10;6;6;
73241;PMS5003;65659;49.234;-2.094;2024-01-27T15:27:35;2;2;
73241;PMS5003;65659;49.234;-2.094;2024-01-27T15:30:01;7;6;
73241;PMS5003;65659;49.234;-2.094;2024-01-27T15:32:26;4;4;
73241;PMS5003;65659;49.234;-2.094;2024-01-27T15:34:52;7;6;
73241;PMS5003;65659;49.234;-2.094;2024-01-27T15:37:17;5;5;
73241;PMS5003;65659;49.234;-2.094;2024-01-27T15:39:43;5;5;
73241;PMS5003;65659;49.234;-2.094;2024-01-27T15:42:09;5;5;
73241;PMS5003;65659;49.234;-2.094;2024-01-27T15:44:34;4;3;
73241;PMS5003;65659;49.234;-2.094;2024-01-27T15:46:59;6;6;
73241;PMS5003;65659;49.234;-2.094;2024-01-27T15:49:25;6;6;
73241;PMS5003;65659;49.234;-2.094;2024-01-27T15:51:51;7;5;
73241;PMS5003;65659;49.234;-2.094;2024-01-27T15:54:17;4;4;
73241;PMS5003;65659;49.234;-2.094;2024-01-27T15:56:42;5;4;
73241;PMS5003;65659;49.234;-2.094;2024-01-27T15:59:08;6;6;
73241;PMS5003;65659;49.234;-2.094;2024-01-27T16:01:33;5;5;
73241;PMS5003;65659;49.234;-2.094;2024-01-27T16:03:59;5;5;
73241;PMS5003;65659;49.234;-2.094;2024-01-27T16:06:24;6;6;
73241;PMS5003;65659;49.234;-2.094;2024-01-27T16:08:50;7;6;
73241;PMS5003;65659;49.234;-2.094;2024-01-27T16:11:15;6;5;
73241;PMS5003;65659;49.234;-2.094;2024-01-27T16:13:41;5;5;
73241;PMS5003;65659;49.234;-2.094;2024-01-27T16:16:07;14;12;
73241;PMS5003;65659;49.234;-2.094;2024-01-27T16:18:33;9;8;